sensor_id;sensor_type;location;lat;lon;timestamp;pressure;altitude;pressure_sealevel;temperature;humidity
61014;BME280;46899;47.542;19.082;2023-03-17T00:00:56;101364.84;;;0.10;69.13
61014;BME280;46899;47.542;19.082;2023-03-17T00:03:58;101361.25;;;0.02;70.66
61014;BME280;46899;47.542;19.082;2023-03-17T00:07:01;101361.94;;;-0.06;70.86
61014;BME280;46899;47.542;19.082;2023-03-17T00:10:05;101365.97;;;-0.15;71.19
61014;BME280;46899;47.542;19.082;2023-03-17T00:13:10;101364.28;;;-0.15;72.61
61014;BME280;46899;47.542;19.082;2023-03-17T00:16:15;101369.53;;;-0.09;72.74
61014;BME280;46899;47.542;19.082;2023-03-17T00:19:26;101359.13;;;-0.16;72.97
61014;BME280;46899;47.542;19.082;2023-03-17T00:22:32;101360.84;;;-0.17;74.04
61014;BME280;46899;47.542;19.082;2023-03-17T00:25:34;101362.53;;;-0.16;74.59
61014;BME280;46899;47.542;19.082;2023-03-17T00:28:37;101358.09;;;-0.24;74.92
61014;BME280;46899;47.542;19.082;2023-03-17T00:31:40;101356.50;;;-0.19;75.97
61014;BME280;46899;47.542;19.082;2023-03-17T00:34:46;101357.06;;;-0.31;76.85
61014;BME280;46899;47.542;19.082;2023-03-17T00:37:51;101351.00;;;-0.34;77.03
61014;BME280;46899;47.542;19.082;2023-03-17T00:40:57;101348.44;;;-0.34;76.72
61014;BME280;46899;47.542;19.082;2023-03-17T00:44:00;101340.56;;;-0.43;77.57
61014;BME280;46899;47.542;19.082;2023-03-17T00:47:03;101342.91;;;-0.51;78.50
61014;BME280;46899;47.542;19.082;2023-03-17T00:50:06;101346.91;;;-0.62;78.90
61014;BME280;46899;47.542;19.082;2023-03-17T00:53:16;101350.19;;;-0.66;79.05
61014;BME280;46899;47.542;19.082;2023-03-17T00:56:20;101350.88;;;-0.73;80.84
61014;BME280;46899;47.542;19.082;2023-03-17T00:59:26;101343.78;;;-0.83;81.22
61014;BME280;46899;47.542;19.082;2023-03-17T01:02:30;101339.69;;;-0.77;82.04
61014;BME280;46899;47.542;19.082;2023-03-17T01:05:33;101342.16;;;-0.80;82.67
61014;BME280;46899;47.542;19.082;2023-03-17T01:08:36;101352.25;;;-0.84;83.06
61014;BME280;46899;47.542;19.082;2023-03-17T01:11:41;101347.78;;;-0.91;82.81
61014;BME280;46899;47.542;19.082;2023-03-17T01:14:56;101339.03;;;-1.01;83.57
61014;BME280;46899;47.542;19.082;2023-03-17T01:17:59;101337.34;;;-1.00;84.05
61014;BME280;46899;47.542;19.082;2023-03-17T01:21:02;101346.75;;;-0.99;84.81
61014;BME280;46899;47.542;19.082;2023-03-17T01:24:06;101343.09;;;-1.07;85.01
61014;BME280;46899;47.542;19.082;2023-03-17T01:27:09;101344.56;;;-1.15;85.62
61014;BME280;46899;47.542;19.082;2023-03-17T01:33:21;101349.28;;;-0.99;88.04
61014;BME280;46899;47.542;19.082;2023-03-17T01:36:24;101347.41;;;-1.06;88.13
61014;BME280;46899;47.542;19.082;2023-03-17T01:39:27;101347.22;;;-1.12;89.40
61014;BME280;46899;47.542;19.082;2023-03-17T01:42:30;101342.31;;;-1.05;89.08
61014;BME280;46899;47.542;19.082;2023-03-17T01:52:15;101355.78;;;-1.10;91.89
61014;BME280;46899;47.542;19.082;2023-03-17T01:55:19;101352.31;;;-1.12;92.87
61014;BME280;46899;47.542;19.082;2023-03-17T01:58:23;101339.31;;;-1.20;94.78
61014;BME280;46899;47.542;19.082;2023-03-17T02:01:27;101337.63;;;-1.21;95.86
61014;BME280;46899;47.542;19.082;2023-03-17T02:04:33;101342.34;;;-1.03;96.02
61014;BME280;46899;47.542;19.082;2023-03-17T02:07:36;101339.97;;;-0.97;96.44
61014;BME280;46899;47.542;19.082;2023-03-17T02:10:39;101345.00;;;-1.00;95.83
61014;BME280;46899;47.542;19.082;2023-03-17T02:13:42;101353.31;;;-1.07;96.39
61014;BME280;46899;47.542;19.082;2023-03-17T02:16:47;101362.44;;;-1.15;97.46
61014;BME280;46899;47.542;19.082;2023-03-17T02:19:50;101359.72;;;-1.21;97.87
61014;BME280;46899;47.542;19.082;2023-03-17T02:22:53;101378.41;;;-1.22;98.04
61014;BME280;46899;47.542;19.082;2023-03-17T02:25:56;101381.53;;;-1.32;98.37
61014;BME280;46899;47.542;19.082;2023-03-17T02:29:00;101386.53;;;-1.35;99.15
61014;BME280;46899;47.542;19.082;2023-03-17T02:32:03;101393.28;;;-1.37;99.25
61014;BME280;46899;47.542;19.082;2023-03-17T02:35:08;101395.63;;;-1.44;100.00
61014;BME280;46899;47.542;19.082;2023-03-17T02:38:11;101393.56;;;-1.55;100.00
61014;BME280;46899;47.542;19.082;2023-03-17T02:41:13;101390.09;;;-1.59;100.00
61014;BME280;46899;47.542;19.082;2023-03-17T02:44:16;101384.06;;;-1.61;100.00
61014;BME280;46899;47.542;19.082;2023-03-17T02:47:19;101380.88;;;-1.54;100.00
61014;BME280;46899;47.542;19.082;2023-03-17T02:50:22;101388.31;;;-1.61;100.00
61014;BME280;46899;47.542;19.082;2023-03-17T02:53:26;101380.31;;;-1.72;100.00
61014;BME280;46899;47.542;19.082;2023-03-17T02:56:28;101373.50;;;-1.73;100.00
61014;BME280;46899;47.542;19.082;2023-03-17T02:59:31;101374.16;;;-1.78;100.00
61014;BME280;46899;47.542;19.082;2023-03-17T03:02:34;101384.16;;;-1.58;100.00
61014;BME280;46899;47.542;19.082;2023-03-17T03:05:36;101386.41;;;-1.67;100.00
61014;BME280;46899;47.542;19.082;2023-03-17T03:08:39;101393.69;;;-1.79;100.00
61014;BME280;46899;47.542;19.082;2023-03-17T03:11:42;101390.16;;;-1.84;100.00
61014;BME280;46899;47.542;19.082;2023-03-17T03:14:44;101386.03;;;-1.79;100.00
61014;BME280;46899;47.542;19.082;2023-03-17T03:17:47;101387.81;;;-1.76;100.00
61014;BME280;46899;47.542;19.082;2023-03-17T03:20:49;101386.91;;;-1.78;100.00
61014;BME280;46899;47.542;19.082;2023-03-17T03:23:52;101386.88;;;-1.80;100.00
61014;BME280;46899;47.542;19.082;2023-03-17T03:26:55;101397.84;;;-1.82;100.00
61014;BME280;46899;47.542;19.082;2023-03-17T03:29:57;101392.38;;;-1.93;100.00
61014;BME280;46899;47.542;19.082;2023-03-17T03:33:00;101386.59;;;-1.89;100.00
61014;BME280;46899;47.542;19.082;2023-03-17T03:36:03;101396.44;;;-1.99;100.00
61014;BME280;46899;47.542;19.082;2023-03-17T03:39:05;101395.47;;;-2.03;100.00
61014;BME280;46899;47.542;19.082;2023-03-17T03:42:09;101389.28;;;-2.10;100.00
61014;BME280;46899;47.542;19.082;2023-03-17T03:45:11;101385.69;;;-2.16;100.00
61014;BME280;46899;47.542;19.082;2023-03-17T03:48:14;101383.91;;;-2.19;100.00
61014;BME280;46899;47.542;19.082;2023-03-17T03:51:17;101389.25;;;-2.11;100.00
61014;BME280;46899;47.542;19.082;2023-03-17T03:54:20;101383.22;;;-2.15;100.00
61014;BME280;46899;47.542;19.082;2023-03-17T03:57:22;101382.22;;;-2.18;100.00
61014;BME280;46899;47.542;19.082;2023-03-17T04:00:25;101380.88;;;-2.07;100.00
61014;BME280;46899;47.542;19.082;2023-03-17T04:03:28;101385.22;;;-2.04;100.00
61014;BME280;46899;47.542;19.082;2023-03-17T04:06:31;101376.56;;;-2.10;100.00
61014;BME280;46899;47.542;19.082;2023-03-17T04:09:34;101378.97;;;-2.14;100.00
61014;BME280;46899;47.542;19.082;2023-03-17T04:12:37;101377.38;;;-2.11;100.00
61014;BME280;46899;47.542;19.082;2023-03-17T04:15:40;101375.59;;;-2.13;100.00
61014;BME280;46899;47.542;19.082;2023-03-17T04:18:43;101371.94;;;-2.21;100.00
61014;BME280;46899;47.542;19.082;2023-03-17T04:21:46;101370.94;;;-2.26;100.00
61014;BME280;46899;47.542;19.082;2023-03-17T04:24:49;101380.09;;;-2.31;100.00
61014;BME280;46899;47.542;19.082;2023-03-17T04:27:52;101380.09;;;-2.31;100.00
61014;BME280;46899;47.542;19.082;2023-03-17T04:30:55;101375.09;;;-2.28;100.00
61014;BME280;46899;47.542;19.082;2023-03-17T04:33:58;101384.19;;;-2.36;100.00
61014;BME280;46899;47.542;19.082;2023-03-17T04:37:00;101389.87;;;-2.43;100.00
61014;BME280;46899;47.542;19.082;2023-03-17T04:40:05;101378.09;;;-2.40;100.00
61014;BME280;46899;47.542;19.082;2023-03-17T04:43:09;101378.31;;;-2.34;100.00
61014;BME280;46899;47.542;19.082;2023-03-17T04:46:12;101383.31;;;-2.37;100.00
61014;BME280;46899;47.542;19.082;2023-03-17T04:49:14;101381.75;;;-2.33;100.00
61014;BME280;46899;47.542;19.082;2023-03-17T04:52:18;101392.53;;;-2.40;100.00
61014;BME280;46899;47.542;19.082;2023-03-17T04:55:20;101391.69;;;-2.41;100.00
61014;BME280;46899;47.542;19.082;2023-03-17T04:58:23;101406.13;;;-2.40;100.00
61014;BME280;46899;47.542;19.082;2023-03-17T05:01:32;101408.31;;;-2.25;100.00
61014;BME280;46899;47.542;19.082;2023-03-17T05:04:34;101400.69;;;-2.25;100.00
61014;BME280;46899;47.542;19.082;2023-03-17T05:07:37;101399.81;;;-2.26;100.00
61014;BME280;46899;47.542;19.082;2023-03-17T05:10:40;101402.34;;;-2.26;100.00
61014;BME280;46899;47.542;19.082;2023-03-17T05:13:42;101405.88;;;-2.22;100.00
61014;BME280;46899;47.542;19.082;2023-03-17T05:16:46;101411.28;;;-2.13;100.00
61014;BME280;46899;47.542;19.082;2023-03-17T05:19:48;101394.56;;;-2.05;100.00
61014;BME280;46899;47.542;19.082;2023-03-17T05:22:51;101404.59;;;-1.84;100.00
61014;BME280;46899;47.542;19.082;2023-03-17T05:25:54;101402.97;;;-1.81;100.00
61014;BME280;46899;47.542;19.082;2023-03-17T05:28:57;101409.94;;;-1.77;100.00
61014;BME280;46899;47.542;19.082;2023-03-17T05:31:59;101406.81;;;-1.67;100.00
61014;BME280;46899;47.542;19.082;2023-03-17T05:35:02;101418.16;;;-1.59;100.00
61014;BME280;46899;47.542;19.082;2023-03-17T05:38:05;101414.19;;;-1.49;100.00
61014;BME280;46899;47.542;19.082;2023-03-17T05:41:08;101419.75;;;-1.34;100.00
61014;BME280;46899;47.542;19.082;2023-03-17T05:44:11;101424.31;;;-1.24;100.00
61014;BME280;46899;47.542;19.082;2023-03-17T05:47:14;101421.16;;;-1.15;100.00
61014;BME280;46899;47.542;19.082;2023-03-17T05:50:17;101418.31;;;-0.96;100.00
61014;BME280;46899;47.542;19.082;2023-03-17T05:53:20;101409.09;;;-0.91;99.55
61014;BME280;46899;47.542;19.082;2023-03-17T05:56:23;101406.91;;;-0.78;98.94
61014;BME280;46899;47.542;19.082;2023-03-17T05:59:28;101420.88;;;-0.66;97.25
61014;BME280;46899;47.542;19.082;2023-03-17T06:02:31;101417.88;;;-0.52;95.23
61014;BME280;46899;47.542;19.082;2023-03-17T06:05:34;101431.22;;;-0.31;91.09
61014;BME280;46899;47.542;19.082;2023-03-17T06:08:37;101424.22;;;-0.05;89.03
61014;BME280;46899;47.542;19.082;2023-03-17T06:11:40;101406.34;;;2.58;79.57
61014;BME280;46899;47.542;19.082;2023-03-17T06:14:42;101408.12;;;9.04;50.36
61014;BME280;46899;47.542;19.082;2023-03-17T06:17:45;101406.66;;;13.49;36.43
61014;BME280;46899;47.542;19.082;2023-03-17T06:20:48;101407.34;;;16.01;30.45
61014;BME280;46899;47.542;19.082;2023-03-17T06:23:50;101401.47;;;17.92;26.81
61014;BME280;46899;47.542;19.082;2023-03-17T06:26:53;101416.13;;;19.33;24.76
61014;BME280;46899;47.542;19.082;2023-03-17T06:29:55;101421.28;;;19.67;24.03
61014;BME280;46899;47.542;19.082;2023-03-17T06:32:58;101414.03;;;18.04;24.37
61014;BME280;46899;47.542;19.082;2023-03-17T06:36:01;101417.44;;;17.51;25.38
61014;BME280;46899;47.542;19.082;2023-03-17T06:39:04;101427.22;;;15.85;28.10
61014;BME280;46899;47.542;19.082;2023-03-17T06:42:07;101417.00;;;16.21;27.14
61014;BME280;46899;47.542;19.082;2023-03-17T06:45:10;101424.88;;;17.03;25.89
61014;BME280;46899;47.542;19.082;2023-03-17T06:48:13;101420.28;;;15.84;27.45
61014;BME280;46899;47.542;19.082;2023-03-17T06:51:15;101426.81;;;16.79;26.50
61014;BME280;46899;47.542;19.082;2023-03-17T06:54:18;101428.94;;;16.50;26.38
61014;BME280;46899;47.542;19.082;2023-03-17T06:57:22;101427.09;;;14.46;28.83
61014;BME280;46899;47.542;19.082;2023-03-17T07:00:25;101426.25;;;13.04;31.64
61014;BME280;46899;47.542;19.082;2023-03-17T07:03:28;101435.69;;;14.23;30.61
61014;BME280;46899;47.542;19.082;2023-03-17T07:06:32;101439.28;;;13.65;30.80
61014;BME280;46899;47.542;19.082;2023-03-17T07:09:34;101439.50;;;14.41;29.70
61014;BME280;46899;47.542;19.082;2023-03-17T07:12:37;101447.44;;;15.14;29.32
61014;BME280;46899;47.542;19.082;2023-03-17T07:15:40;101439.63;;;16.67;27.55
61014;BME280;46899;47.542;19.082;2023-03-17T07:18:44;101449.22;;;16.04;27.54
61014;BME280;46899;47.542;19.082;2023-03-17T07:21:47;101451.44;;;14.50;29.73
61014;BME280;46899;47.542;19.082;2023-03-17T07:24:50;101458.03;;;13.21;31.49
61014;BME280;46899;47.542;19.082;2023-03-17T07:27:53;101450.69;;;12.35;32.36
61014;BME280;46899;47.542;19.082;2023-03-17T07:30:56;101456.38;;;11.78;33.26
61014;BME280;46899;47.542;19.082;2023-03-17T07:33:59;101453.00;;;11.74;33.56
61014;BME280;46899;47.542;19.082;2023-03-17T07:37:02;101451.97;;;11.81;33.74
61014;BME280;46899;47.542;19.082;2023-03-17T07:40:04;101449.47;;;11.77;34.76
61014;BME280;46899;47.542;19.082;2023-03-17T07:43:07;101444.53;;;12.38;32.34
61014;BME280;46899;47.542;19.082;2023-03-17T07:46:10;101456.12;;;12.94;31.34
61014;BME280;46899;47.542;19.082;2023-03-17T07:49:14;101446.03;;;13.43;30.99
61014;BME280;46899;47.542;19.082;2023-03-17T07:52:17;101453.31;;;14.71;28.88
61014;BME280;46899;47.542;19.082;2023-03-17T07:55:20;101455.28;;;16.48;26.87
61014;BME280;46899;47.542;19.082;2023-03-17T07:58:22;101443.50;;;17.93;24.70
61014;BME280;46899;47.542;19.082;2023-03-17T08:01:26;101454.50;;;17.45;24.77
61014;BME280;46899;47.542;19.082;2023-03-17T08:04:29;101449.75;;;17.35;24.56
61014;BME280;46899;47.542;19.082;2023-03-17T08:07:32;101445.41;;;18.95;23.36
61014;BME280;46899;47.542;19.082;2023-03-17T08:10:34;101438.91;;;18.85;22.92
61014;BME280;46899;47.542;19.082;2023-03-17T08:13:37;101441.84;;;17.16;24.24
61014;BME280;46899;47.542;19.082;2023-03-17T08:16:40;101431.38;;;16.12;26.02
61014;BME280;46899;47.542;19.082;2023-03-17T08:19:42;101432.47;;;15.63;26.17
61014;BME280;46899;47.542;19.082;2023-03-17T08:22:45;101425.50;;;16.27;25.76
61014;BME280;46899;47.542;19.082;2023-03-17T08:25:48;101436.25;;;15.78;26.23
61014;BME280;46899;47.542;19.082;2023-03-17T08:28:51;101425.50;;;13.59;29.49
61014;BME280;46899;47.542;19.082;2023-03-17T08:31:54;101424.22;;;13.44;30.29
61014;BME280;46899;47.542;19.082;2023-03-17T08:34:57;101428.66;;;13.42;29.37
61014;BME280;46899;47.542;19.082;2023-03-17T08:37:59;101416.37;;;14.00;28.45
61014;BME280;46899;47.542;19.082;2023-03-17T08:41:03;101419.94;;;14.51;27.50
61014;BME280;46899;47.542;19.082;2023-03-17T08:44:07;101424.63;;;14.92;27.17
61014;BME280;46899;47.542;19.082;2023-03-17T08:47:10;101424.84;;;18.33;23.09
61014;BME280;46899;47.542;19.082;2023-03-17T08:50:17;101412.19;;;18.06;23.00
61014;BME280;46899;47.542;19.082;2023-03-17T08:53:20;101414.13;;;16.49;23.85
61014;BME280;46899;47.542;19.082;2023-03-17T08:56:23;101415.03;;;13.31;26.74
61014;BME280;46899;47.542;19.082;2023-03-17T08:59:26;101421.94;;;11.62;28.42
61014;BME280;46899;47.542;19.082;2023-03-17T09:02:29;101424.38;;;10.87;28.57
61014;BME280;46899;47.542;19.082;2023-03-17T09:05:32;101429.22;;;10.61;29.09
61014;BME280;46899;47.542;19.082;2023-03-17T09:08:39;101417.44;;;9.84;31.46
61014;BME280;46899;47.542;19.082;2023-03-17T09:11:45;101423.22;;;10.02;31.76
61014;BME280;46899;47.542;19.082;2023-03-17T09:14:48;101424.81;;;10.11;31.14
61014;BME280;46899;47.542;19.082;2023-03-17T09:17:51;101430.37;;;9.88;31.36
61014;BME280;46899;47.542;19.082;2023-03-17T09:20:54;101423.97;;;10.12;31.09
61014;BME280;46899;47.542;19.082;2023-03-17T09:23:57;101420.34;;;10.20;30.90
61014;BME280;46899;47.542;19.082;2023-03-17T09:27:03;101417.00;;;10.11;31.14
61014;BME280;46899;47.542;19.082;2023-03-17T09:30:06;101415.12;;;10.23;31.27
61014;BME280;46899;47.542;19.082;2023-03-17T09:33:11;101413.47;;;10.18;30.37
61014;BME280;46899;47.542;19.082;2023-03-17T09:36:15;101415.06;;;10.25;29.88
61014;BME280;46899;47.542;19.082;2023-03-17T09:39:17;101419.91;;;10.46;29.93
61014;BME280;46899;47.542;19.082;2023-03-17T09:42:30;101412.47;;;10.26;29.07
61014;BME280;46899;47.542;19.082;2023-03-17T09:45:39;101412.31;;;10.34;28.97
61014;BME280;46899;47.542;19.082;2023-03-17T09:51:48;101397.94;;;10.15;29.94
61014;BME280;46899;47.542;19.082;2023-03-17T09:54:51;101409.84;;;10.28;29.82
61014;BME280;46899;47.542;19.082;2023-03-17T09:57:54;101403.69;;;10.34;28.92
61014;BME280;46899;47.542;19.082;2023-03-17T10:01:00;101390.84;;;10.23;28.61
61014;BME280;46899;47.542;19.082;2023-03-17T10:04:04;101389.28;;;10.13;29.72
61014;BME280;46899;47.542;19.082;2023-03-17T10:07:08;101387.28;;;10.27;29.62
61014;BME280;46899;47.542;19.082;2023-03-17T10:10:13;101373.16;;;10.43;29.52
61014;BME280;46899;47.542;19.082;2023-03-17T10:22:53;101384.06;;;10.63;29.12
61014;BME280;46899;47.542;19.082;2023-03-17T10:29:21;101374.97;;;10.84;29.60
61014;BME280;46899;47.542;19.082;2023-03-17T10:32:25;101364.31;;;10.96;28.52
61014;BME280;46899;47.542;19.082;2023-03-17T10:35:28;101356.59;;;10.91;28.33
61014;BME280;46899;47.542;19.082;2023-03-17T10:38:32;101353.22;;;11.28;28.38
61014;BME280;46899;47.542;19.082;2023-03-17T10:41:37;101348.63;;;11.39;28.43
61014;BME280;46899;47.542;19.082;2023-03-17T10:44:44;101339.16;;;11.75;27.83
61014;BME280;46899;47.542;19.082;2023-03-17T10:47:49;101339.25;;;11.70;27.60
61014;BME280;46899;47.542;19.082;2023-03-17T10:50:54;101345.22;;;11.37;27.97
61014;BME280;46899;47.542;19.082;2023-03-17T10:53:58;101344.41;;;10.93;28.65
61014;BME280;46899;47.542;19.082;2023-03-17T10:57:01;101339.59;;;11.15;28.44
61014;BME280;46899;47.542;19.082;2023-03-17T11:00:10;101338.94;;;11.06;28.26
61014;BME280;46899;47.542;19.082;2023-03-17T11:03:17;101336.97;;;11.17;28.42
61014;BME280;46899;47.542;19.082;2023-03-17T11:06:31;101329.63;;;11.34;27.91
61014;BME280;46899;47.542;19.082;2023-03-17T11:09:35;101333.78;;;11.42;28.12
61014;BME280;46899;47.542;19.082;2023-03-17T11:12:39;101325.50;;;11.24;27.97
61014;BME280;46899;47.542;19.082;2023-03-17T11:15:44;101309.06;;;11.22;28.25
61014;BME280;46899;47.542;19.082;2023-03-17T11:18:49;101309.47;;;11.04;27.96
61014;BME280;46899;47.542;19.082;2023-03-17T11:21:57;101309.72;;;11.31;28.30
61014;BME280;46899;47.542;19.082;2023-03-17T11:25:16;101308.13;;;11.26;27.63
61014;BME280;46899;47.542;19.082;2023-03-17T11:28:21;101306.59;;;11.16;28.26
61014;BME280;46899;47.542;19.082;2023-03-17T11:38:23;101289.94;;;11.23;28.30
61014;BME280;46899;47.542;19.082;2023-03-17T12:00:51;101246.41;;;11.28;29.01
61014;BME280;46899;47.542;19.082;2023-03-17T12:07:39;101245.41;;;11.33;28.83
61014;BME280;46899;47.542;19.082;2023-03-17T12:10:59;101233.50;;;11.22;28.62
61014;BME280;46899;47.542;19.082;2023-03-17T12:14:03;101217.41;;;11.05;29.03
61014;BME280;46899;47.542;19.082;2023-03-17T12:17:14;101206.13;;;11.06;29.19
61014;BME280;46899;47.542;19.082;2023-03-17T12:20:23;101208.44;;;11.18;28.91
61014;BME280;46899;47.542;19.082;2023-03-17T12:23:31;101214.00;;;11.39;29.00
61014;BME280;46899;47.542;19.082;2023-03-17T12:26:36;101211.50;;;11.35;29.08
61014;BME280;46899;47.542;19.082;2023-03-17T12:32:49;101209.41;;;11.49;29.30
61014;BME280;46899;47.542;19.082;2023-03-17T12:35:55;101202.13;;;11.28;29.04
61014;BME280;46899;47.542;19.082;2023-03-17T12:38:59;101195.97;;;10.95;29.31
61014;BME280;46899;47.542;19.082;2023-03-17T12:45:17;101184.69;;;10.94;29.76
61014;BME280;46899;47.542;19.082;2023-03-17T12:55:11;101179.28;;;11.73;28.34
61014;BME280;46899;47.542;19.082;2023-03-17T13:07:33;101174.81;;;11.07;28.26
61014;BME280;46899;47.542;19.082;2023-03-17T13:10:42;101173.47;;;11.28;27.79
61014;BME280;46899;47.542;19.082;2023-03-17T13:13:49;101162.66;;;11.08;28.21
61014;BME280;46899;47.542;19.082;2023-03-17T13:17:30;101150.50;;;11.08;28.45
61014;BME280;46899;47.542;19.082;2023-03-17T13:20:36;101154.44;;;11.24;28.15
61014;BME280;46899;47.542;19.082;2023-03-17T13:29:57;101141.47;;;10.86;28.99
61014;BME280;46899;47.542;19.082;2023-03-17T13:36:21;101144.59;;;11.02;29.05
61014;BME280;46899;47.542;19.082;2023-03-17T13:48:39;101147.38;;;10.94;29.31
61014;BME280;46899;47.542;19.082;2023-03-17T13:51:41;101140.72;;;10.82;29.42
61014;BME280;46899;47.542;19.082;2023-03-17T13:55:27;101142.81;;;10.67;29.59
61014;BME280;46899;47.542;19.082;2023-03-17T13:58:30;101141.28;;;10.95;29.64
61014;BME280;46899;47.542;19.082;2023-03-17T14:01:36;101135.44;;;10.84;29.69
61014;BME280;46899;47.542;19.082;2023-03-17T14:04:44;101136.25;;;10.87;29.51
61014;BME280;46899;47.542;19.082;2023-03-17T14:07:58;101130.12;;;10.88;29.39
61014;BME280;46899;47.542;19.082;2023-03-17T14:11:03;101125.44;;;11.02;29.70
61014;BME280;46899;47.542;19.082;2023-03-17T14:17:24;101116.47;;;11.16;30.41
61014;BME280;46899;47.542;19.082;2023-03-17T14:20:30;101106.91;;;11.16;29.97
61014;BME280;46899;47.542;19.082;2023-03-17T14:23:33;101100.78;;;11.17;30.04
61014;BME280;46899;47.542;19.082;2023-03-17T14:26:38;101089.56;;;11.15;29.63
61014;BME280;46899;47.542;19.082;2023-03-17T14:29:40;101095.97;;;11.02;29.87
61014;BME280;46899;47.542;19.082;2023-03-17T14:32:46;101095.06;;;11.03;30.17
61014;BME280;46899;47.542;19.082;2023-03-17T14:35:51;101091.09;;;11.22;29.70
61014;BME280;46899;47.542;19.082;2023-03-17T14:38:54;101087.38;;;11.32;29.72
61014;BME280;46899;47.542;19.082;2023-03-17T14:42:01;101085.03;;;11.22;29.57
61014;BME280;46899;47.542;19.082;2023-03-17T14:45:05;101080.75;;;11.19;29.68
61014;BME280;46899;47.542;19.082;2023-03-17T14:48:11;101070.75;;;11.02;29.49
61014;BME280;46899;47.542;19.082;2023-03-17T14:51:29;101069.72;;;11.10;29.93
61014;BME280;46899;47.542;19.082;2023-03-17T14:54:33;101065.50;;;11.06;29.84
61014;BME280;46899;47.542;19.082;2023-03-17T14:57:36;101062.31;;;10.93;29.75
61014;BME280;46899;47.542;19.082;2023-03-17T15:00:44;101053.72;;;10.91;29.87
61014;BME280;46899;47.542;19.082;2023-03-17T15:03:52;101045.72;;;10.98;30.17
61014;BME280;46899;47.542;19.082;2023-03-17T15:06:56;101047.97;;;10.78;30.33
61014;BME280;46899;47.542;19.082;2023-03-17T15:09:59;101046.34;;;10.73;30.71
61014;BME280;46899;47.542;19.082;2023-03-17T15:13:04;101041.78;;;10.82;30.51
61014;BME280;46899;47.542;19.082;2023-03-17T15:16:14;101039.56;;;11.01;30.59
61014;BME280;46899;47.542;19.082;2023-03-17T15:19:20;101028.69;;;10.85;30.55
61014;BME280;46899;47.542;19.082;2023-03-17T15:25:33;101025.34;;;10.80;30.37
61014;BME280;46899;47.542;19.082;2023-03-17T15:28:38;101024.59;;;10.75;30.85
61014;BME280;46899;47.542;19.082;2023-03-17T15:31:41;101022.94;;;10.73;30.81
61014;BME280;46899;47.542;19.082;2023-03-17T15:34:43;101009.47;;;10.56;31.29
61014;BME280;46899;47.542;19.082;2023-03-17T15:37:46;101012.25;;;10.48;31.74
61014;BME280;46899;47.542;19.082;2023-03-17T15:40:49;101014.19;;;10.40;31.88
61014;BME280;46899;47.542;19.082;2023-03-17T15:43:52;101016.22;;;10.27;31.79
61014;BME280;46899;47.542;19.082;2023-03-17T15:46:55;101020.81;;;10.16;31.82
61014;BME280;46899;47.542;19.082;2023-03-17T15:50:01;101009.72;;;10.07;31.94
61014;BME280;46899;47.542;19.082;2023-03-17T15:53:09;101007.44;;;9.93;31.96
61014;BME280;46899;47.542;19.082;2023-03-17T15:56:13;101006.72;;;9.87;32.25
61014;BME280;46899;47.542;19.082;2023-03-17T15:59:17;101010.41;;;9.77;32.38
61014;BME280;46899;47.542;19.082;2023-03-17T16:05:23;101003.88;;;9.57;32.37
61014;BME280;46899;47.542;19.082;2023-03-17T16:08:26;100999.94;;;9.38;32.59
61014;BME280;46899;47.542;19.082;2023-03-17T16:11:30;101005.25;;;9.32;32.92
61014;BME280;46899;47.542;19.082;2023-03-17T16:14:32;101005.41;;;9.23;32.95
61014;BME280;46899;47.542;19.082;2023-03-17T16:17:35;101005.41;;;9.25;32.95
61014;BME280;46899;47.542;19.082;2023-03-17T16:20:50;101006.50;;;9.13;33.16
61014;BME280;46899;47.542;19.082;2023-03-17T16:23:53;101013.53;;;9.05;33.58
61014;BME280;46899;47.542;19.082;2023-03-17T16:26:56;101012.84;;;8.95;33.60
61014;BME280;46899;47.542;19.082;2023-03-17T16:29:59;101017.25;;;8.92;33.55
61014;BME280;46899;47.542;19.082;2023-03-17T16:33:03;101014.62;;;8.93;33.61
61014;BME280;46899;47.542;19.082;2023-03-17T16:36:14;101017.53;;;8.75;33.81
61014;BME280;46899;47.542;19.082;2023-03-17T16:39:18;101010.16;;;8.51;34.13
61014;BME280;46899;47.542;19.082;2023-03-17T16:42:21;101022.28;;;8.49;34.19
61014;BME280;46899;47.542;19.082;2023-03-17T16:45:25;101017.91;;;8.53;34.38
61014;BME280;46899;47.542;19.082;2023-03-17T16:48:29;101022.53;;;8.34;34.70
61014;BME280;46899;47.542;19.082;2023-03-17T16:51:32;101017.69;;;8.10;35.37
61014;BME280;46899;47.542;19.082;2023-03-17T16:54:34;101017.00;;;7.97;36.00
61014;BME280;46899;47.542;19.082;2023-03-17T16:57:37;101018.81;;;7.89;37.06
61014;BME280;46899;47.542;19.082;2023-03-17T17:00:40;101021.53;;;7.82;36.53
61014;BME280;46899;47.542;19.082;2023-03-17T17:03:42;101025.09;;;7.70;37.04
61014;BME280;46899;47.542;19.082;2023-03-17T17:06:45;101027.50;;;7.85;36.95
61014;BME280;46899;47.542;19.082;2023-03-17T17:09:48;101023.44;;;7.68;37.16
61014;BME280;46899;47.542;19.082;2023-03-17T17:12:52;101032.03;;;7.68;37.47
61014;BME280;46899;47.542;19.082;2023-03-17T17:15:54;101036.16;;;7.86;37.49
61014;BME280;46899;47.542;19.082;2023-03-17T17:18:57;101021.38;;;7.92;37.41
61014;BME280;46899;47.542;19.082;2023-03-17T17:22:00;101025.81;;;7.83;37.85
61014;BME280;46899;47.542;19.082;2023-03-17T17:25:03;101026.91;;;7.65;38.35
61014;BME280;46899;47.542;19.082;2023-03-17T17:28:05;101026.91;;;7.65;38.55
61014;BME280;46899;47.542;19.082;2023-03-17T17:31:09;101027.88;;;7.56;38.89
61014;BME280;46899;47.542;19.082;2023-03-17T17:34:12;101024.59;;;7.44;39.21